Create Custom Reports and Graphics: Custom Report

Modesto Jr College

Current Conditions

2/21/20 6:45 PM (-08:00)
Updated Every 15 Minutes
Temp 62.4 °F   5.9
RH 43 %   11
Dew Pt 39.6 °F   0.4
Wind Spd 2.9 mph
Wind Dir ENE | 66 °
Wind Gust 6.6 mph   2.4
Latest Rain 0.00 In
Daily Rain 0.00 In
Daily Min Temp 38.1 °F   6.7
Daily Max Temp 70.1 °F   2.4

Last 24 Hours

Modesto Jr College

15 Minute Data | America/Los_Angeles
as of 2/21/20 6:47 PM PST
Date & Time Temp (°F) RH (%) Dew Pt (°F) Wind Spd (mph) Wind Dir (°) Wind Gust (mph) Latest Rain (In) Daily Rain (In) Daily Min Temp (°F) Daily Max Temp (°F)
2/21/20 - 1845 62.4 43 39.6 2.9 ENE | 66 6.6 0.00 0.00 38.1 70.1
2/21/20 - 1830 62.8 42 39.6 2.7 NW | 306 8.8 0.00 0.00 38.1 70.1
2/21/20 - 1815 63.0 42 39.7 3.5 WNW | 283 8.1 0.00 0.00 38.1 70.1
2/21/20 - 1800 63.6 41 39.7 3.7 W | 271 6.1 0.00 0.00 38.1 70.1
2/21/20 - 1745 63.7 42 40.1 4.2 WNW | 288 7.9 0.00 0.00 38.1 70.1
2/21/20 - 1730 64.6 41 40.5 3.2 W | 265 5.5 0.00 0.00 38.1 70.1
2/21/20 - 1715 65.0 40 40.2 4.6 W | 268 11.8 0.00 0.00 38.1 70.1
2/21/20 - 1700 66.6 35 38.4 5.5 SW | 214 9.4 0.00 0.00 38.1 70.1
2/21/20 - 1645 67.4 34 37.8 1.8 SW | 228 5.0 0.00 0.00 38.1 70.1
2/21/20 - 1630 67.2 33 37.2 7.2 NW | 324 14.7 0.00 0.00 38.1 70.1
2/21/20 - 1615 67.2 34 38.0 8.3 NW | 320 13.4 0.00 0.00 38.1 70.1
2/21/20 - 1600 67.3 35 38.4 7.0 NNW | 335 13.4 0.00 0.00 38.1 70.1
2/21/20 - 1545 67.3 35 38.5 6.6 NNW | 343 12.9 0.00 0.00 38.1 70.1
2/21/20 - 1530 67.9 35 39.0 4.1 NNW | 334 8.3 0.00 0.00 38.1 70.1
2/21/20 - 1515 68.2 33 38.4 4.5 NW | 325 7.2 0.00 0.00 38.1 70.1
2/21/20 - 1500 68.2 33 37.7 4.1 NNW | 332 7.7 0.00 0.00 38.1 70.1
2/21/20 - 1445 68.3 33 38.0 6.2 NW | 324 10.1 0.00 0.00 38.1 70.1
2/21/20 - 1430 69.7 32 38.9 5.5 WNW | 296 9.6 0.00 0.00 38.1 70.1
2/21/20 - 1415 68.9 34 39.0 6.2 WNW | 289 11.6 0.00 0.00 38.1 70.1
2/21/20 - 1400 67.4 34 37.7 7.4 WNW | 295 11.6 0.00 0.00 38.1 70.1
2/21/20 - 1345 69.1 32 37.8 7.4 WNW | 293 13.4 0.00 0.00 38.1 70.1
2/21/20 - 1330 69.2 31 37.4 7.3 WNW | 286 12.7 0.00 0.00 38.1 70.0
2/21/20 - 1315 69.3 31 37.8 7.0 WNW | 286 11.4 0.00 0.00 38.1 69.7
2/21/20 - 1300 68.0 33 37.6 6.8 WNW | 282 11.6 0.00 0.00 38.1 69.1
2/21/20 - 1245 67.8 33 37.6 6.4 W | 272 11.6 0.00 0.00 38.1 68.2
2/21/20 - 1230 66.7 35 38.0 5.4 WNW | 290 10.7 0.00 0.00 38.1 68.0
2/21/20 - 1215 67.0 34 37.4 6.2 WNW | 283 11.6 0.00 0.00 38.1 68.0
2/21/20 - 1200 66.6 34 37.3 6.6 WNW | 303 12.3 0.00 0.00 38.1 68.0
2/21/20 - 1145 67.4 33 37.6 7.6 WNW | 284 13.6 0.00 0.00 38.1 68.0
2/21/20 - 1130 65.3 36 37.6 7.7 WNW | 300 14.2 0.00 0.00 38.1 67.0
2/21/20 - 1115 64.6 37 37.4 8.3 WNW | 302 14.9 0.00 0.00 38.1 65.3
2/21/20 - 1100 64.4 38 38.5 7.0 WNW | 287 12.3 0.00 0.00 38.1 65.2
2/21/20 - 1045 63.5 39 38.4 6.9 WNW | 286 12.1 0.00 0.00 38.1 64.6
2/21/20 - 1030 62.1 41 38.1 7.3 WNW | 293 11.6 0.00 0.00 38.1 62.9
2/21/20 - 1015 61.2 41 37.3 7.4 WNW | 294 11.6 0.00 0.00 38.1 61.6
2/21/20 - 1000 60.2 42 36.8 6.9 WNW | 290 11.6 0.00 0.00 38.1 61.0
2/21/20 - 0945 59.1 42 36.1 6.7 WNW | 286 11.2 0.00 0.00 38.1 59.9
2/21/20 - 0930 57.6 43 35.3 7.7 WNW | 292 12.9 0.00 0.00 38.1 58.4
2/21/20 - 0915 58.0 43 35.4 7.2 WNW | 289 12.3 0.00 0.00 38.1 58.4
2/21/20 - 0900 56.4 45 35.5 5.9 WNW | 294 12.1 0.00 0.00 38.1 57.4
2/21/20 - 0845 54.6 49 35.8 5.2 WNW | 300 10.5 0.00 0.00 38.1 55.7
2/21/20 - 0830 53.2 53 36.6 4.8 NW | 317 7.7 0.00 0.00 38.1 54.3
2/21/20 - 0815 51.0 58 36.7 3.9 NW | 323 7.9 0.00 0.00 38.1 52.4
2/21/20 - 0800 48.3 63 36.4 3.7 NW | 321 7.2 0.00 0.00 38.1 49.9
2/21/20 - 0745 46.3 66 35.4 2.2 NW | 316 3.9 0.00 0.00 38.1 46.9
2/21/20 - 0730 44.4 68 34.5 1.0 WNW | 296 2.0 0.00 0.00 38.1 46.3
2/21/20 - 0715 41.8 75 34.4 1.4 WNW | 301 2.2 0.00 0.00 38.1 46.3
2/21/20 - 0700 40.0 78 33.8 1.0 NW | 319 2.4 0.00 0.00 38.1 46.3
2/21/20 - 0645 40.9 76 34.1 1.4 WNW | 289 3.1 0.00 0.00 38.1 46.3
2/21/20 - 0630 41.4 75 34.2 1.2 NW | 308 2.2 0.00 0.00 38.1 46.3
2/21/20 - 0615 40.2 79 34.3 1.9 NW | 313 2.8 0.00 0.00 38.1 46.3
2/21/20 - 0600 38.5 82 33.4 1.4 WNW | 298 2.8 0.00 0.00 38.1 46.3
2/21/20 - 0545 39.3 82 34.4 1.3 NW | 305 2.2 0.00 0.00 38.6 46.3
2/21/20 - 0530 40.3 80 34.4 0.4 NNW | 331 1.1 0.00 0.00 39.6 46.3
2/21/20 - 0515 40.9 79 34.9 0.0 N | 0 0.0 0.00 0.00 40.0 46.3
2/21/20 - 0500 42.7 72 34.2 0.0 N | 0 0.0 0.00 0.00 40.0 46.3
2/21/20 - 0445 43.8 70 34.7 0.5 NNW | 343 1.8 0.00 0.00 40.0 46.3
2/21/20 - 0430 43.7 70 34.6 1.8 NW | 308 3.7 0.00 0.00 40.0 46.3
2/21/20 - 0415 43.1 72 34.6 2.2 WNW | 289 3.9 0.00 0.00 40.0 46.3
2/21/20 - 0400 41.6 77 35.0 2.1 WNW | 288 4.2 0.00 0.00 40.0 46.3
2/21/20 - 0345 40.4 80 34.7 1.9 W | 278 3.3 0.00 0.00 40.0 46.3
2/21/20 - 0330 41.8 77 35.0 0.8 WSW | 252 1.8 0.00 0.00 40.0 46.3
2/21/20 - 0315 42.0 78 35.6 0.5 WSW | 249 1.8 0.00 0.00 40.0 46.3
2/21/20 - 0300 41.8 77 35.0 1.6 W | 265 2.2 0.00 0.00 40.0 46.3
2/21/20 - 0245 42.1 78 35.8 0.4 WSW | 250 1.8 0.00 0.00 40.0 46.3
2/21/20 - 0230 42.8 75 35.3 0.7 W | 281 2.2 0.00 0.00 40.0 46.3
2/21/20 - 0215 43.5 73 35.3 0.1 W | 272 1.3 0.00 0.00 40.0 46.3
2/21/20 - 0200 44.6 71 35.8 1.5 WNW | 291 2.8 0.00 0.00 40.0 46.3
2/21/20 - 0145 45.0 70 35.8 1.8 NW | 313 3.5 0.00 0.00 40.0 46.3
2/21/20 - 0130 45.6 69 35.9 2.6 W | 270 3.9 0.00 0.00 40.0 46.3
2/21/20 - 0115 44.2 75 36.8 2.7 WNW | 302 5.3 0.00 0.00 40.0 45.9
2/21/20 - 0100 40.4 87 36.8 1.8 WNW | 292 5.5 0.00 0.00 40.0 42.7
2/21/20 - 0045 41.1 86 37.4 0.3 NNW | 348 1.1 0.00 0.00 40.4 42.7
2/21/20 - 0030 42.2 86 38.1 0.0 N | 0 0.0 0.00 0.00 41.4 42.7
2/21/20 - 0015 41.7 87 38.1 0.4 NW | 313 1.3 0.00 0.00 41.4 42.4
2/21/20 - 0000 41.6 87 37.9 1.2 NNW | 344 1.8 0.00 0.00 31.4 72.5
2/20/20 - 2345 41.8 86 38.0 0.4 N | 1 1.5 0.00 0.00 31.4 72.5
2/20/20 - 2330 42.3 82 37.3 0.5 NNW | 329 1.8 0.00 0.00 31.4 72.5
2/20/20 - 2315 43.7 80 37.9 1.5 NW | 318 2.8 0.00 0.00 31.4 72.5
2/20/20 - 2300 43.8 79 37.8 0.1 NW | 304 1.3 0.00 0.00 31.4 72.5
2/20/20 - 2245 44.4 79 38.3 0.9 WNW | 290 3.1 0.00 0.00 31.4 72.5
2/20/20 - 2230 44.2 80 38.4 1.0 WNW | 295 2.4 0.00 0.00 31.4 72.5
2/20/20 - 2215 44.2 81 38.7 0.8 WNW | 293 2.2 0.00 0.00 31.4 72.5
2/20/20 - 2200 44.8 80 39.0 0.4 NNW | 328 2.0 0.00 0.00 31.4 72.5
2/20/20 - 2145 44.8 79 38.8 1.4 WNW | 292 3.3 0.00 0.00 31.4 72.5
2/20/20 - 2130 45.2 80 39.6 1.0 W | 265 2.4 0.00 0.00 31.4 72.5
2/20/20 - 2115 45.7 77 38.8 1.3 WSW | 250 2.6 0.00 0.00 31.4 72.5
2/20/20 - 2100 47.9 73 39.6 1.1 WSW | 248 2.2 0.00 0.00 31.4 72.5
2/20/20 - 2045 48.5 72 40.0 0.7 WNW | 298 2.0 0.00 0.00 31.4 72.5
2/20/20 - 2030 48.5 72 39.8 0.3 NNW | 327 1.1 0.00 0.00 31.4 72.5
2/20/20 - 2015 48.9 69 39.3 1.5 W | 280 2.8 0.00 0.00 31.4 72.5
2/20/20 - 2000 50.1 67 39.5 2.2 W | 268 3.7 0.00 0.00 31.4 72.5
2/20/20 - 1945 51.6 64 39.8 2.8 WSW | 258 4.2 0.00 0.00 31.4 72.5
2/20/20 - 1930 53.3 61 40.1 2.6 W | 273 3.7 0.00 0.00 31.4 72.5
2/20/20 - 1915 54.4 59 40.5 1.9 NW | 317 2.8 0.00 0.00 31.4 72.5
2/20/20 - 1900 55.7 56 40.4 1.7 NNW | 334 2.8 0.00 0.00 31.4 72.5
2/20/20 - 1845 56.5 54 40.0 2.2 WNW | 288 4.2 0.00 0.00 31.4 72.5
Max 69.7 87 40.5 8.3 - 14.9 0.00 0.00 41.4 72.5
Avg 53.3 59 37.3 3.3 - 6.2 0.00 - - -
Min 38.5 31 33.4 0.0 - 0.0 0.00 0.00 31.4 42.4
Total - - - - - - 0.00 - - -

Last 7 Days

Modesto Jr College

Daily Data | America/Los_Angeles
as of 2/21/20 6:47 PM PST
Date Daily ETo (in)
2/20/20 0.094
2/19/20 0.096
2/18/20 0.110
2/17/20 0.134
2/16/20 0.102
2/15/20 0.082
2/14/20 0.078
Max 0.134
Min 0.078